sensor_id;sensor_type;location;lat;lon;timestamp;temperature;humidity
44117;DHT22;29781;49.480;8.512;2023-04-03T00:01:05;5.00;99.90
44117;DHT22;29781;49.480;8.512;2023-04-03T00:03:31;5.00;99.90
44117;DHT22;29781;49.480;8.512;2023-04-03T00:05:56;4.90;99.90
44117;DHT22;29781;49.480;8.512;2023-04-03T00:08:22;4.80;99.90
44117;DHT22;29781;49.480;8.512;2023-04-03T00:10:48;4.70;99.90
44117;DHT22;29781;49.480;8.512;2023-04-03T00:13:14;4.60;99.90
44117;DHT22;29781;49.480;8.512;2023-04-03T00:15:40;4.50;99.90
44117;DHT22;29781;49.480;8.512;2023-04-03T00:18:06;4.50;99.90
44117;DHT22;29781;49.480;8.512;2023-04-03T00:20:32;4.50;99.90
44117;DHT22;29781;49.480;8.512;2023-04-03T00:22:58;4.40;99.90
44117;DHT22;29781;49.480;8.512;2023-04-03T00:25:24;4.40;99.90
44117;DHT22;29781;49.480;8.512;2023-04-03T00:27:49;4.30;99.90
44117;DHT22;29781;49.480;8.512;2023-04-03T00:30:17;4.20;99.90
44117;DHT22;29781;49.480;8.512;2023-04-03T00:32:43;4.10;99.90
44117;DHT22;29781;49.480;8.512;2023-04-03T00:35:09;4.10;99.90
44117;DHT22;29781;49.480;8.512;2023-04-03T00:37:35;4.20;99.90
44117;DHT22;29781;49.480;8.512;2023-04-03T00:40:01;4.20;99.90
44117;DHT22;29781;49.480;8.512;2023-04-03T00:42:27;4.20;99.90
44117;DHT22;29781;49.480;8.512;2023-04-03T00:47:18;3.90;99.90
44117;DHT22;29781;49.480;8.512;2023-04-03T00:49:45;3.90;99.90
44117;DHT22;29781;49.480;8.512;2023-04-03T00:52:16;3.90;99.90
44117;DHT22;29781;49.480;8.512;2023-04-03T00:54:43;4.00;99.90
44117;DHT22;29781;49.480;8.512;2023-04-03T00:57:11;3.90;99.90
44117;DHT22;29781;49.480;8.512;2023-04-03T00:59:44;3.80;99.90
44117;DHT22;29781;49.480;8.512;2023-04-03T01:02:11;3.70;99.90
44117;DHT22;29781;49.480;8.512;2023-04-03T01:04:39;3.60;99.90
44117;DHT22;29781;49.480;8.512;2023-04-03T01:07:20;3.60;99.90
44117;DHT22;29781;49.480;8.512;2023-04-03T01:09:48;3.50;99.90
44117;DHT22;29781;49.480;8.512;2023-04-03T01:12:24;3.40;99.90
44117;DHT22;29781;49.480;8.512;2023-04-03T01:14:52;3.30;99.90
44117;DHT22;29781;49.480;8.512;2023-04-03T01:17:28;3.20;99.90
44117;DHT22;29781;49.480;8.512;2023-04-03T01:23:35;3.10;99.90
44117;DHT22;29781;49.480;8.512;2023-04-03T01:26:03;3.10;99.90
44117;DHT22;29781;49.480;8.512;2023-04-03T01:28:32;3.20;99.90
44117;DHT22;29781;49.480;8.512;2023-04-03T01:33:24;3.30;99.90
44117;DHT22;29781;49.480;8.512;2023-04-03T01:35:49;3.30;99.90
44117;DHT22;29781;49.480;8.512;2023-04-03T01:38:15;3.30;99.90
44117;DHT22;29781;49.480;8.512;2023-04-03T01:40:41;3.50;99.90
44117;DHT22;29781;49.480;8.512;2023-04-03T01:43:06;3.50;99.90
44117;DHT22;29781;49.480;8.512;2023-04-03T01:45:32;3.50;99.90
44117;DHT22;29781;49.480;8.512;2023-04-03T01:47:57;3.50;99.90
44117;DHT22;29781;49.480;8.512;2023-04-03T01:50:23;3.50;99.90
44117;DHT22;29781;49.480;8.512;2023-04-03T01:52:48;3.50;99.90
44117;DHT22;29781;49.480;8.512;2023-04-03T01:55:14;3.60;99.90
44117;DHT22;29781;49.480;8.512;2023-04-03T01:57:40;3.60;99.90
44117;DHT22;29781;49.480;8.512;2023-04-03T02:00:06;3.70;99.90
44117;DHT22;29781;49.480;8.512;2023-04-03T02:02:33;3.60;99.90
44117;DHT22;29781;49.480;8.512;2023-04-03T02:04:58;3.40;99.90
44117;DHT22;29781;49.480;8.512;2023-04-03T02:07:24;3.30;99.90
44117;DHT22;29781;49.480;8.512;2023-04-03T02:09:49;3.30;99.90
44117;DHT22;29781;49.480;8.512;2023-04-03T02:12:15;3.20;99.90
44117;DHT22;29781;49.480;8.512;2023-04-03T02:14:41;3.10;99.90
44117;DHT22;29781;49.480;8.512;2023-04-03T02:17:06;3.00;99.90
44117;DHT22;29781;49.480;8.512;2023-04-03T02:19:34;2.90;99.90
44117;DHT22;29781;49.480;8.512;2023-04-03T02:22:01;2.80;99.90
44117;DHT22;29781;49.480;8.512;2023-04-03T02:24:27;2.80;99.90
44117;DHT22;29781;49.480;8.512;2023-04-03T02:26:52;2.80;99.90
44117;DHT22;29781;49.480;8.512;2023-04-03T02:29:18;2.70;99.90
44117;DHT22;29781;49.480;8.512;2023-04-03T02:31:44;2.80;99.90
44117;DHT22;29781;49.480;8.512;2023-04-03T02:34:09;2.70;99.90
44117;DHT22;29781;49.480;8.512;2023-04-03T02:36:35;2.70;99.90
44117;DHT22;29781;49.480;8.512;2023-04-03T02:39:01;2.70;99.90
44117;DHT22;29781;49.480;8.512;2023-04-03T02:41:26;2.80;99.90
44117;DHT22;29781;49.480;8.512;2023-04-03T02:43:58;2.80;99.90
44117;DHT22;29781;49.480;8.512;2023-04-03T02:46:24;2.70;99.90
44117;DHT22;29781;49.480;8.512;2023-04-03T02:48:50;2.70;99.90
44117;DHT22;29781;49.480;8.512;2023-04-03T02:51:15;2.60;99.90
44117;DHT22;29781;49.480;8.512;2023-04-03T02:53:41;2.60;99.90
44117;DHT22;29781;49.480;8.512;2023-04-03T02:56:06;2.60;99.90
44117;DHT22;29781;49.480;8.512;2023-04-03T02:58:32;2.50;99.90
44117;DHT22;29781;49.480;8.512;2023-04-03T03:00:58;2.50;99.90
44117;DHT22;29781;49.480;8.512;2023-04-03T03:03:23;2.50;99.90
44117;DHT22;29781;49.480;8.512;2023-04-03T03:05:48;2.50;99.90
44117;DHT22;29781;49.480;8.512;2023-04-03T03:08:14;2.40;99.90
44117;DHT22;29781;49.480;8.512;2023-04-03T03:10:40;2.40;99.90
44117;DHT22;29781;49.480;8.512;2023-04-03T03:13:05;2.40;99.90
44117;DHT22;29781;49.480;8.512;2023-04-03T03:15:31;2.40;99.90
44117;DHT22;29781;49.480;8.512;2023-04-03T03:17:56;2.40;99.90
44117;DHT22;29781;49.480;8.512;2023-04-03T03:20:22;2.30;99.90
44117;DHT22;29781;49.480;8.512;2023-04-03T03:22:47;2.40;99.90
44117;DHT22;29781;49.480;8.512;2023-04-03T03:25:13;2.40;99.90
44117;DHT22;29781;49.480;8.512;2023-04-03T03:27:38;2.40;99.90
44117;DHT22;29781;49.480;8.512;2023-04-03T03:30:04;2.40;99.90
44117;DHT22;29781;49.480;8.512;2023-04-03T03:32:30;2.20;99.90
44117;DHT22;29781;49.480;8.512;2023-04-03T03:34:56;2.20;99.90
44117;DHT22;29781;49.480;8.512;2023-04-03T03:37:21;2.10;99.90
44117;DHT22;29781;49.480;8.512;2023-04-03T03:39:47;2.10;99.90
44117;DHT22;29781;49.480;8.512;2023-04-03T03:42:12;2.10;99.90
44117;DHT22;29781;49.480;8.512;2023-04-03T03:44:38;2.10;99.90
44117;DHT22;29781;49.480;8.512;2023-04-03T03:47:03;2.10;99.90
44117;DHT22;29781;49.480;8.512;2023-04-03T03:49:31;2.10;99.90
44117;DHT22;29781;49.480;8.512;2023-04-03T03:51:56;2.10;99.90
44117;DHT22;29781;49.480;8.512;2023-04-03T03:54:22;2.10;99.90
44117;DHT22;29781;49.480;8.512;2023-04-03T03:56:47;2.10;99.90
44117;DHT22;29781;49.480;8.512;2023-04-03T03:59:13;2.10;99.90
44117;DHT22;29781;49.480;8.512;2023-04-03T04:01:38;2.10;99.90
44117;DHT22;29781;49.480;8.512;2023-04-03T04:04:04;2.00;99.90
44117;DHT22;29781;49.480;8.512;2023-04-03T04:06:30;2.00;99.90
44117;DHT22;29781;49.480;8.512;2023-04-03T04:08:56;1.90;99.90
44117;DHT22;29781;49.480;8.512;2023-04-03T04:11:21;1.90;99.90
44117;DHT22;29781;49.480;8.512;2023-04-03T04:13:47;2.00;99.90
44117;DHT22;29781;49.480;8.512;2023-04-03T04:16:13;2.00;99.90
44117;DHT22;29781;49.480;8.512;2023-04-03T04:18:38;2.00;99.90
44117;DHT22;29781;49.480;8.512;2023-04-03T04:21:04;2.00;99.90
44117;DHT22;29781;49.480;8.512;2023-04-03T04:23:29;2.00;99.90
44117;DHT22;29781;49.480;8.512;2023-04-03T04:25:55;2.00;99.90
44117;DHT22;29781;49.480;8.512;2023-04-03T04:28:20;1.90;99.90
44117;DHT22;29781;49.480;8.512;2023-04-03T04:30:46;1.90;99.90
44117;DHT22;29781;49.480;8.512;2023-04-03T04:33:11;2.00;99.90
44117;DHT22;29781;49.480;8.512;2023-04-03T04:35:39;2.10;99.90
44117;DHT22;29781;49.480;8.512;2023-04-03T04:38:04;2.10;99.90
44117;DHT22;29781;49.480;8.512;2023-04-03T04:40:30;2.00;99.90
44117;DHT22;29781;49.480;8.512;2023-04-03T04:42:56;2.10;99.90
44117;DHT22;29781;49.480;8.512;2023-04-03T04:45:21;2.00;99.90
44117;DHT22;29781;49.480;8.512;2023-04-03T04:47:47;2.00;99.90
44117;DHT22;29781;49.480;8.512;2023-04-03T04:50:12;2.10;99.90
44117;DHT22;29781;49.480;8.512;2023-04-03T04:52:38;2.10;99.90
44117;DHT22;29781;49.480;8.512;2023-04-03T04:55:04;2.20;99.90
44117;DHT22;29781;49.480;8.512;2023-04-03T04:57:30;2.30;99.90
44117;DHT22;29781;49.480;8.512;2023-04-03T04:59:56;2.40;99.90
44117;DHT22;29781;49.480;8.512;2023-04-03T05:02:21;2.30;99.90
44117;DHT22;29781;49.480;8.512;2023-04-03T05:04:47;2.40;99.90
44117;DHT22;29781;49.480;8.512;2023-04-03T05:07:12;2.40;99.90
44117;DHT22;29781;49.480;8.512;2023-04-03T05:09:38;2.40;99.90
44117;DHT22;29781;49.480;8.512;2023-04-03T05:12:04;2.50;99.90
44117;DHT22;29781;49.480;8.512;2023-04-03T05:14:29;2.60;99.90
44117;DHT22;29781;49.480;8.512;2023-04-03T05:16:55;2.70;99.90
44117;DHT22;29781;49.480;8.512;2023-04-03T05:19:21;2.60;99.90
44117;DHT22;29781;49.480;8.512;2023-04-03T05:21:47;2.60;99.90
44117;DHT22;29781;49.480;8.512;2023-04-03T05:24:13;2.50;99.90
44117;DHT22;29781;49.480;8.512;2023-04-03T05:26:39;2.30;99.90
44117;DHT22;29781;49.480;8.512;2023-04-03T05:29:04;2.30;99.90
44117;DHT22;29781;49.480;8.512;2023-04-03T05:31:30;2.10;99.90
44117;DHT22;29781;49.480;8.512;2023-04-03T05:33:56;2.10;99.90
44117;DHT22;29781;49.480;8.512;2023-04-03T05:36:22;1.90;99.90
44117;DHT22;29781;49.480;8.512;2023-04-03T05:38:48;1.90;99.90
44117;DHT22;29781;49.480;8.512;2023-04-03T05:41:15;1.80;99.90
44117;DHT22;29781;49.480;8.512;2023-04-03T05:43:40;1.80;99.90
44117;DHT22;29781;49.480;8.512;2023-04-03T05:46:18;1.80;99.90
44117;DHT22;29781;49.480;8.512;2023-04-03T05:48:43;1.80;99.90
44117;DHT22;29781;49.480;8.512;2023-04-03T05:51:22;1.90;99.90
44117;DHT22;29781;49.480;8.512;2023-04-03T05:53:50;2.00;99.90
44117;DHT22;29781;49.480;8.512;2023-04-03T05:56:17;2.10;99.90
44117;DHT22;29781;49.480;8.512;2023-04-03T05:58:42;2.10;99.90
44117;DHT22;29781;49.480;8.512;2023-04-03T06:01:08;2.00;99.90
44117;DHT22;29781;49.480;8.512;2023-04-03T06:03:34;2.20;99.90
44117;DHT22;29781;49.480;8.512;2023-04-03T06:06:02;2.20;99.90
44117;DHT22;29781;49.480;8.512;2023-04-03T06:08:28;2.30;99.90
44117;DHT22;29781;49.480;8.512;2023-04-03T06:10:54;2.30;99.90
44117;DHT22;29781;49.480;8.512;2023-04-03T06:13:19;2.40;99.90
44117;DHT22;29781;49.480;8.512;2023-04-03T06:15:45;2.50;99.90
44117;DHT22;29781;49.480;8.512;2023-04-03T06:18:11;2.60;99.90
44117;DHT22;29781;49.480;8.512;2023-04-03T06:20:37;2.60;99.90
44117;DHT22;29781;49.480;8.512;2023-04-03T06:23:02;2.70;99.90
44117;DHT22;29781;49.480;8.512;2023-04-03T06:25:28;2.70;99.90
44117;DHT22;29781;49.480;8.512;2023-04-03T06:27:54;2.80;99.90
44117;DHT22;29781;49.480;8.512;2023-04-03T06:30:21;2.80;99.90
44117;DHT22;29781;49.480;8.512;2023-04-03T06:32:46;2.90;99.90
44117;DHT22;29781;49.480;8.512;2023-04-03T06:35:12;2.90;99.90
44117;DHT22;29781;49.480;8.512;2023-04-03T06:37:37;3.00;99.90
44117;DHT22;29781;49.480;8.512;2023-04-03T06:40:03;3.00;99.90
44117;DHT22;29781;49.480;8.512;2023-04-03T06:42:30;3.20;99.90
44117;DHT22;29781;49.480;8.512;2023-04-03T06:44:55;3.40;99.90
44117;DHT22;29781;49.480;8.512;2023-04-03T06:47:21;3.40;99.90
44117;DHT22;29781;49.480;8.512;2023-04-03T06:49:46;3.50;99.90
44117;DHT22;29781;49.480;8.512;2023-04-03T06:52:12;3.60;99.90
44117;DHT22;29781;49.480;8.512;2023-04-03T06:54:38;3.60;99.90
44117;DHT22;29781;49.480;8.512;2023-04-03T06:57:04;3.70;99.90
44117;DHT22;29781;49.480;8.512;2023-04-03T06:59:30;3.70;99.90
44117;DHT22;29781;49.480;8.512;2023-04-03T07:01:55;3.70;99.90
44117;DHT22;29781;49.480;8.512;2023-04-03T07:04:21;3.70;99.90
44117;DHT22;29781;49.480;8.512;2023-04-03T07:06:47;3.70;99.90
44117;DHT22;29781;49.480;8.512;2023-04-03T07:09:14;3.70;99.90
44117;DHT22;29781;49.480;8.512;2023-04-03T07:11:40;3.90;99.90
44117;DHT22;29781;49.480;8.512;2023-04-03T07:14:06;4.00;99.90
44117;DHT22;29781;49.480;8.512;2023-04-03T07:16:33;4.10;99.90
44117;DHT22;29781;49.480;8.512;2023-04-03T07:18:59;4.30;99.90
44117;DHT22;29781;49.480;8.512;2023-04-03T07:21:24;4.40;99.90
44117;DHT22;29781;49.480;8.512;2023-04-03T07:23:50;4.50;99.90
44117;DHT22;29781;49.480;8.512;2023-04-03T07:26:16;4.60;99.90
44117;DHT22;29781;49.480;8.512;2023-04-03T07:28:41;4.70;99.90
44117;DHT22;29781;49.480;8.512;2023-04-03T07:31:12;4.80;99.90
44117;DHT22;29781;49.480;8.512;2023-04-03T07:33:39;4.80;99.90
44117;DHT22;29781;49.480;8.512;2023-04-03T07:36:05;4.80;99.90
44117;DHT22;29781;49.480;8.512;2023-04-03T07:38:32;5.00;99.90
44117;DHT22;29781;49.480;8.512;2023-04-03T07:40:58;5.00;99.90
44117;DHT22;29781;49.480;8.512;2023-04-03T07:43:23;4.80;99.90
44117;DHT22;29781;49.480;8.512;2023-04-03T07:45:50;4.80;99.90
44117;DHT22;29781;49.480;8.512;2023-04-03T07:48:18;5.10;99.90
44117;DHT22;29781;49.480;8.512;2023-04-03T07:50:43;5.10;99.90
44117;DHT22;29781;49.480;8.512;2023-04-03T07:53:09;5.30;99.90
44117;DHT22;29781;49.480;8.512;2023-04-03T07:55:35;5.30;99.90
44117;DHT22;29781;49.480;8.512;2023-04-03T07:58:05;5.30;99.90
44117;DHT22;29781;49.480;8.512;2023-04-03T08:00:31;5.40;99.90
44117;DHT22;29781;49.480;8.512;2023-04-03T08:02:56;5.60;99.90
44117;DHT22;29781;49.480;8.512;2023-04-03T08:05:22;5.70;99.90
44117;DHT22;29781;49.480;8.512;2023-04-03T08:07:48;5.70;99.90
44117;DHT22;29781;49.480;8.512;2023-04-03T08:10:14;5.60;99.90
44117;DHT22;29781;49.480;8.512;2023-04-03T08:12:40;5.70;99.90
44117;DHT22;29781;49.480;8.512;2023-04-03T08:15:07;6.00;99.90
44117;DHT22;29781;49.480;8.512;2023-04-03T08:17:34;5.80;99.90
44117;DHT22;29781;49.480;8.512;2023-04-03T08:20:00;5.80;99.90
44117;DHT22;29781;49.480;8.512;2023-04-03T08:22:26;5.90;99.90
44117;DHT22;29781;49.480;8.512;2023-04-03T08:24:53;6.10;99.90
44117;DHT22;29781;49.480;8.512;2023-04-03T08:27:18;6.00;99.90
44117;DHT22;29781;49.480;8.512;2023-04-03T08:29:44;6.00;99.90
44117;DHT22;29781;49.480;8.512;2023-04-03T08:32:10;6.30;99.90
44117;DHT22;29781;49.480;8.512;2023-04-03T08:34:36;6.20;99.90
44117;DHT22;29781;49.480;8.512;2023-04-03T08:37:02;6.30;99.90
44117;DHT22;29781;49.480;8.512;2023-04-03T08:39:28;6.50;99.90
44117;DHT22;29781;49.480;8.512;2023-04-03T08:41:56;6.50;99.90
44117;DHT22;29781;49.480;8.512;2023-04-03T08:44:50;6.60;99.90
44117;DHT22;29781;49.480;8.512;2023-04-03T08:47:33;6.70;99.90
44117;DHT22;29781;49.480;8.512;2023-04-03T08:50:15;6.90;99.90
44117;DHT22;29781;49.480;8.512;2023-04-03T08:52:52;6.90;99.90
44117;DHT22;29781;49.480;8.512;2023-04-03T08:55:37;6.70;99.90
44117;DHT22;29781;49.480;8.512;2023-04-03T08:58:07;6.90;99.90
44117;DHT22;29781;49.480;8.512;2023-04-03T09:00:43;7.20;99.90
44117;DHT22;29781;49.480;8.512;2023-04-03T09:03:13;7.30;99.90
44117;DHT22;29781;49.480;8.512;2023-04-03T09:08:35;7.00;99.90
44117;DHT22;29781;49.480;8.512;2023-04-03T09:11:14;7.00;99.90
44117;DHT22;29781;49.480;8.512;2023-04-03T09:13:48;7.40;99.90
44117;DHT22;29781;49.480;8.512;2023-04-03T09:16:36;7.50;99.90
44117;DHT22;29781;49.480;8.512;2023-04-03T09:21:47;7.50;99.90
44117;DHT22;29781;49.480;8.512;2023-04-03T09:24:14;7.50;99.90
44117;DHT22;29781;49.480;8.512;2023-04-03T09:29:22;7.30;99.90
44117;DHT22;29781;49.480;8.512;2023-04-03T09:31:56;7.50;99.90
44117;DHT22;29781;49.480;8.512;2023-04-03T09:34:26;8.20;99.90
44117;DHT22;29781;49.480;8.512;2023-04-03T09:36:57;7.90;99.90
44117;DHT22;29781;49.480;8.512;2023-04-03T09:39:30;7.90;99.90
44117;DHT22;29781;49.480;8.512;2023-04-03T09:42:04;7.70;99.90
44117;DHT22;29781;49.480;8.512;2023-04-03T09:44:33;7.90;99.90
44117;DHT22;29781;49.480;8.512;2023-04-03T09:47:00;8.20;99.90
44117;DHT22;29781;49.480;8.512;2023-04-03T09:49:42;8.30;99.90
44117;DHT22;29781;49.480;8.512;2023-04-03T09:52:24;8.40;99.90
44117;DHT22;29781;49.480;8.512;2023-04-03T09:54:50;8.10;99.90
44117;DHT22;29781;49.480;8.512;2023-04-03T09:57:16;7.80;99.90
44117;DHT22;29781;49.480;8.512;2023-04-03T10:00:01;8.10;99.90
44117;DHT22;29781;49.480;8.512;2023-04-03T10:02:51;8.00;99.90
44117;DHT22;29781;49.480;8.512;2023-04-03T10:05:33;8.10;99.90
44117;DHT22;29781;49.480;8.512;2023-04-03T10:10:45;8.60;99.90
44117;DHT22;29781;49.480;8.512;2023-04-03T10:13:14;8.50;99.90
44117;DHT22;29781;49.480;8.512;2023-04-03T10:15:45;8.40;99.90
44117;DHT22;29781;49.480;8.512;2023-04-03T10:21:04;8.60;99.90
44117;DHT22;29781;49.480;8.512;2023-04-03T10:23:49;8.30;99.90
44117;DHT22;29781;49.480;8.512;2023-04-03T10:32:41;9.20;99.90
44117;DHT22;29781;49.480;8.512;2023-04-03T10:40:33;8.00;99.20
44117;DHT22;29781;49.480;8.512;2023-04-03T10:43:13;8.70;98.50
44117;DHT22;29781;49.480;8.512;2023-04-03T10:46:03;8.80;99.10
44117;DHT22;29781;49.480;8.512;2023-04-03T10:49:00;9.20;99.20
44117;DHT22;29781;49.480;8.512;2023-04-03T10:54:56;9.70;97.70
44117;DHT22;29781;49.480;8.512;2023-04-03T10:57:23;9.60;99.50
44117;DHT22;29781;49.480;8.512;2023-04-03T10:59:53;8.90;99.90
44117;DHT22;29781;49.480;8.512;2023-04-03T11:02:37;8.30;99.90
44117;DHT22;29781;49.480;8.512;2023-04-03T11:08:04;8.40;99.90
44117;DHT22;29781;49.480;8.512;2023-04-03T11:10:46;8.40;99.90
44117;DHT22;29781;49.480;8.512;2023-04-03T11:13:21;8.10;99.90
44117;DHT22;29781;49.480;8.512;2023-04-03T11:15:49;8.30;99.90
44117;DHT22;29781;49.480;8.512;2023-04-03T11:21:04;8.20;99.90
44117;DHT22;29781;49.480;8.512;2023-04-03T11:23:36;8.10;99.90
44117;DHT22;29781;49.480;8.512;2023-04-03T11:26:08;8.20;99.90
44117;DHT22;29781;49.480;8.512;2023-04-03T11:28:36;8.40;99.90
44117;DHT22;29781;49.480;8.512;2023-04-03T11:31:27;8.10;99.60
44117;DHT22;29781;49.480;8.512;2023-04-03T11:34:15;8.10;99.90
44117;DHT22;29781;49.480;8.512;2023-04-03T11:36:56;8.70;99.90
44117;DHT22;29781;49.480;8.512;2023-04-03T11:39:33;9.10;99.90
44117;DHT22;29781;49.480;8.512;2023-04-03T11:42:22;8.70;99.90
44117;DHT22;29781;49.480;8.512;2023-04-03T11:44:50;8.40;99.90
44117;DHT22;29781;49.480;8.512;2023-04-03T11:47:51;7.90;99.80
44117;DHT22;29781;49.480;8.512;2023-04-03T11:50:40;7.70;99.90
44117;DHT22;29781;49.480;8.512;2023-04-03T12:00:47;9.10;99.00
44117;DHT22;29781;49.480;8.512;2023-04-03T12:24:30;9.10;95.00
44117;DHT22;29781;49.480;8.512;2023-04-03T12:27:15;8.80;96.00
44117;DHT22;29781;49.480;8.512;2023-04-03T12:40:51;9.80;96.70
44117;DHT22;29781;49.480;8.512;2023-04-03T12:48:46;8.10;97.50
44117;DHT22;29781;49.480;8.512;2023-04-03T12:51:27;8.40;99.70
44117;DHT22;29781;49.480;8.512;2023-04-03T12:54:00;8.30;98.20
44117;DHT22;29781;49.480;8.512;2023-04-03T12:56:27;8.70;96.50
44117;DHT22;29781;49.480;8.512;2023-04-03T12:58:55;8.50;97.10
44117;DHT22;29781;49.480;8.512;2023-04-03T13:01:24;8.60;97.70
44117;DHT22;29781;49.480;8.512;2023-04-03T13:03:57;9.40;95.00
44117;DHT22;29781;49.480;8.512;2023-04-03T13:06:30;9.50;95.10
44117;DHT22;29781;49.480;8.512;2023-04-03T13:09:00;9.20;98.20
44117;DHT22;29781;49.480;8.512;2023-04-03T13:11:29;8.90;96.40
44117;DHT22;29781;49.480;8.512;2023-04-03T13:14:02;8.40;97.60
44117;DHT22;29781;49.480;8.512;2023-04-03T13:16:30;8.30;98.20
44117;DHT22;29781;49.480;8.512;2023-04-03T13:18:56;8.60;96.20
44117;DHT22;29781;49.480;8.512;2023-04-03T13:21:28;9.00;96.70
44117;DHT22;29781;49.480;8.512;2023-04-03T13:23:59;9.20;96.70
44117;DHT22;29781;49.480;8.512;2023-04-03T13:26:28;8.90;96.80
44117;DHT22;29781;49.480;8.512;2023-04-03T13:28:59;8.60;97.90
44117;DHT22;29781;49.480;8.512;2023-04-03T13:31:26;8.00;98.30
44117;DHT22;29781;49.480;8.512;2023-04-03T13:34:07;7.80;98.10
44117;DHT22;29781;49.480;8.512;2023-04-03T13:36:58;7.90;99.60
44117;DHT22;29781;49.480;8.512;2023-04-03T13:39:25;8.10;98.60
44117;DHT22;29781;49.480;8.512;2023-04-03T13:41:54;8.30;99.40
44117;DHT22;29781;49.480;8.512;2023-04-03T13:46:52;8.50;97.70
44117;DHT22;29781;49.480;8.512;2023-04-03T13:49:35;8.60;98.20
44117;DHT22;29781;49.480;8.512;2023-04-03T13:52:21;8.50;98.70
44117;DHT22;29781;49.480;8.512;2023-04-03T13:54:58;8.50;97.50
44117;DHT22;29781;49.480;8.512;2023-04-03T13:57:24;8.10;97.80
44117;DHT22;29781;49.480;8.512;2023-04-03T13:59:50;7.80;98.00
44117;DHT22;29781;49.480;8.512;2023-04-03T14:02:38;7.90;97.20
44117;DHT22;29781;49.480;8.512;2023-04-03T14:05:04;7.90;97.20
44117;DHT22;29781;49.480;8.512;2023-04-03T14:07:33;7.80;96.40
44117;DHT22;29781;49.480;8.512;2023-04-03T14:09:59;8.00;96.20
44117;DHT22;29781;49.480;8.512;2023-04-03T14:12:32;8.20;94.30
44117;DHT22;29781;49.480;8.512;2023-04-03T14:15:01;8.20;94.40
44117;DHT22;29781;49.480;8.512;2023-04-03T14:17:27;8.30;94.90
44117;DHT22;29781;49.480;8.512;2023-04-03T14:19:53;8.50;96.20
44117;DHT22;29781;49.480;8.512;2023-04-03T14:22:25;8.70;92.80
44117;DHT22;29781;49.480;8.512;2023-04-03T14:24:52;8.70;95.60
44117;DHT22;29781;49.480;8.512;2023-04-03T14:29:43;8.40;94.70
44117;DHT22;29781;49.480;8.512;2023-04-03T14:32:12;8.30;95.10
44117;DHT22;29781;49.480;8.512;2023-04-03T14:34:38;8.20;95.30
44117;DHT22;29781;49.480;8.512;2023-04-03T14:37:05;8.20;92.70
44117;DHT22;29781;49.480;8.512;2023-04-03T14:39:31;8.30;92.00
44117;DHT22;29781;49.480;8.512;2023-04-03T14:41:56;8.30;92.50
44117;DHT22;29781;49.480;8.512;2023-04-03T14:44:22;8.50;93.80
44117;DHT22;29781;49.480;8.512;2023-04-03T14:46:48;8.60;92.60
44117;DHT22;29781;49.480;8.512;2023-04-03T14:49:15;8.80;93.20
44117;DHT22;29781;49.480;8.512;2023-04-03T14:51:43;8.70;92.60
44117;DHT22;29781;49.480;8.512;2023-04-03T14:54:18;8.80;93.30
44117;DHT22;29781;49.480;8.512;2023-04-03T14:56:47;9.00;91.10
44117;DHT22;29781;49.480;8.512;2023-04-03T14:59:13;8.90;91.10
44117;DHT22;29781;49.480;8.512;2023-04-03T15:01:40;8.70;90.00
44117;DHT22;29781;49.480;8.512;2023-04-03T15:04:14;8.40;90.40
44117;DHT22;29781;49.480;8.512;2023-04-03T15:06:40;8.40;90.60
44117;DHT22;29781;49.480;8.512;2023-04-03T15:09:21;8.40;90.90
44117;DHT22;29781;49.480;8.512;2023-04-03T15:11:48;8.50;91.20
44117;DHT22;29781;49.480;8.512;2023-04-03T15:14:14;8.50;91.70
44117;DHT22;29781;49.480;8.512;2023-04-03T15:16:39;8.60;92.30
44117;DHT22;29781;49.480;8.512;2023-04-03T15:19:05;8.70;92.00
44117;DHT22;29781;49.480;8.512;2023-04-03T15:21:30;8.50;91.00
44117;DHT22;29781;49.480;8.512;2023-04-03T15:23:56;8.60;92.20
44117;DHT22;29781;49.480;8.512;2023-04-03T15:26:21;8.60;92.80
44117;DHT22;29781;49.480;8.512;2023-04-03T15:28:47;8.50;92.50
44117;DHT22;29781;49.480;8.512;2023-04-03T15:31:12;8.50;91.30
44117;DHT22;29781;49.480;8.512;2023-04-03T15:33:38;8.60;91.90
44117;DHT22;29781;49.480;8.512;2023-04-03T15:36:04;8.60;87.90
44117;DHT22;29781;49.480;8.512;2023-04-03T15:38:30;8.50;89.30
44117;DHT22;29781;49.480;8.512;2023-04-03T15:40:57;8.50;88.60
44117;DHT22;29781;49.480;8.512;2023-04-03T15:43:23;8.50;88.00
44117;DHT22;29781;49.480;8.512;2023-04-03T15:45:49;8.50;90.10
44117;DHT22;29781;49.480;8.512;2023-04-03T15:48:16;8.70;90.60
44117;DHT22;29781;49.480;8.512;2023-04-03T15:50:42;8.70;92.40
44117;DHT22;29781;49.480;8.512;2023-04-03T15:53:08;8.80;90.20
44117;DHT22;29781;49.480;8.512;2023-04-03T15:55:36;8.80;89.70
44117;DHT22;29781;49.480;8.512;2023-04-03T15:58:02;8.70;89.40
44117;DHT22;29781;49.480;8.512;2023-04-03T16:00:28;8.60;90.10
44117;DHT22;29781;49.480;8.512;2023-04-03T16:03:16;8.90;90.20
44117;DHT22;29781;49.480;8.512;2023-04-03T16:05:42;9.00;90.20
44117;DHT22;29781;49.480;8.512;2023-04-03T16:08:08;8.90;91.30
44117;DHT22;29781;49.480;8.512;2023-04-03T16:10:38;8.60;87.80
44117;DHT22;29781;49.480;8.512;2023-04-03T16:13:05;8.70;90.00
44117;DHT22;29781;49.480;8.512;2023-04-03T16:15:31;8.70;89.50
44117;DHT22;29781;49.480;8.512;2023-04-03T16:17:58;8.70;88.30
44117;DHT22;29781;49.480;8.512;2023-04-03T16:20:24;8.50;89.90
44117;DHT22;29781;49.480;8.512;2023-04-03T16:22:50;8.40;89.20
44117;DHT22;29781;49.480;8.512;2023-04-03T16:25:16;8.30;90.10
44117;DHT22;29781;49.480;8.512;2023-04-03T16:27:44;8.10;89.80
44117;DHT22;29781;49.480;8.512;2023-04-03T16:30:10;8.10;90.20
44117;DHT22;29781;49.480;8.512;2023-04-03T16:32:38;8.00;90.20
44117;DHT22;29781;49.480;8.512;2023-04-03T16:35:04;8.00;90.70
44117;DHT22;29781;49.480;8.512;2023-04-03T16:37:30;8.20;90.50
44117;DHT22;29781;49.480;8.512;2023-04-03T16:39:56;8.20;89.50
44117;DHT22;29781;49.480;8.512;2023-04-03T16:42:24;8.20;89.30
44117;DHT22;29781;49.480;8.512;2023-04-03T16:44:49;8.20;90.40
44117;DHT22;29781;49.480;8.512;2023-04-03T16:47:15;8.30;89.90
44117;DHT22;29781;49.480;8.512;2023-04-03T16:49:44;8.30;90.70
44117;DHT22;29781;49.480;8.512;2023-04-03T16:52:10;8.30;90.80
44117;DHT22;29781;49.480;8.512;2023-04-03T16:54:35;8.40;91.20
44117;DHT22;29781;49.480;8.512;2023-04-03T16:57:04;8.30;91.10
44117;DHT22;29781;49.480;8.512;2023-04-03T16:59:29;8.10;91.10
44117;DHT22;29781;49.480;8.512;2023-04-03T17:01:55;8.20;90.90
44117;DHT22;29781;49.480;8.512;2023-04-03T17:04:21;8.30;90.80
44117;DHT22;29781;49.480;8.512;2023-04-03T17:06:46;8.40;90.20
44117;DHT22;29781;49.480;8.512;2023-04-03T17:09:12;8.40;90.30
44117;DHT22;29781;49.480;8.512;2023-04-03T17:11:39;8.20;91.20
44117;DHT22;29781;49.480;8.512;2023-04-03T17:14:05;8.30;91.10
44117;DHT22;29781;49.480;8.512;2023-04-03T17:16:35;8.10;90.70
44117;DHT22;29781;49.480;8.512;2023-04-03T17:19:02;8.20;90.30
44117;DHT22;29781;49.480;8.512;2023-04-03T17:21:28;8.00;91.30
44117;DHT22;29781;49.480;8.512;2023-04-03T17:23:57;7.90;90.70
44117;DHT22;29781;49.480;8.512;2023-04-03T17:26:24;7.90;91.40